Reno/Stead Information

FAA: RTS - ICAO: KRTS

Reno/Stead (Airport) Location

State Nevada
County Washoe
City Reno
Reno/Stead (Airport) is 10 miles northwest of Reno, NV.
Latitude 39-40-05.4370N
Longitude 119-52-35.1827W
Elevation 5,050ft

Reno/Stead METARs

METAR KRTS 060735Z AUTO 33006KT 10SM CLR 01/M05 A3032 RMK AO2
Altimeter 30.32"
Temperature 1.0°C (33.8°F)
Wind 330° at 6KT
Clouds Skies are clear.
Visibility 10.0mi
Time observed: 2021-12-06T07:35:00Z

Reno/Stead (Airport) Details

Status Operational
Activation August 1943
Ownership Public
Usage Public
Chart SAN FRANCISCO
ATC on-site No
Beacon schedule sunset-sunrise
Beacon color clear green

Reno/Stead (Airport) Contacts

Owner RENO TAHOE ARPT AUTH
Owner address P.O. BOX 12490, RENO, NV 89510
Owner phone 775-328-6400
Manager SCOTT TAYLOR
Manager address 601 NEVADA HWY, BOULDER CITY, NV 89005
Manager phone (702) 293-8971

Reno/Stead Radio Frequencies

Reno/Stead (Airport) Radio Frequencies

UNICOM 122.7
Common traffic advisory frequency (CTAF) 122.7